createdAt,value
2018-09-21T00:00:41.682Z,11.57
2018-09-21T00:03:13.183Z,9.33
2018-09-21T00:05:44.431Z,11.13
2018-09-21T00:08:15.589Z,8.27
2018-09-21T00:10:46.767Z,9.77
2018-09-21T00:13:17.775Z,10.87
2018-09-21T00:15:49.224Z,10.17
2018-09-21T00:18:20.514Z,10.50
2018-09-21T00:20:51.724Z,9.83
2018-09-21T00:23:23.416Z,12.80
2018-09-21T00:25:54.683Z,11.93
2018-09-21T00:28:25.912Z,8.07
2018-09-21T00:30:57.371Z,10.10
2018-09-21T00:33:29.023Z,11.47
2018-09-21T00:36:00.276Z,13.90
2018-09-21T00:38:31.219Z,9.60
2018-09-21T00:41:02.256Z,14.00
2018-09-21T00:43:33.488Z,11.50
2018-09-21T00:46:04.850Z,11.43
2018-09-21T00:48:35.795Z,10.43
2018-09-21T00:51:07.236Z,9.10
2018-09-21T00:53:38.371Z,12.53
2018-09-21T00:56:09.887Z,9.50
2018-09-21T00:58:41.171Z,10.57
2018-09-21T01:01:12.176Z,9.53
2018-09-21T01:03:43.503Z,11.33
2018-09-21T01:06:14.731Z,8.43
2018-09-21T01:08:45.747Z,10.87
2018-09-21T01:11:17.007Z,9.37
2018-09-21T01:13:48.358Z,7.63
2018-09-21T01:16:19.577Z,9.93
2018-09-21T01:18:51.208Z,9.77
2018-09-21T01:21:22.285Z,8.80
2018-09-21T01:23:53.498Z,9.50
2018-09-21T01:26:24.663Z,10.40
2018-09-21T01:28:55.786Z,15.97
2018-09-21T01:31:27.014Z,10.17
2018-09-21T01:33:58.212Z,10.43
2018-09-21T01:36:29.730Z,10.07
2018-09-21T01:39:01.013Z,11.40
2018-09-21T01:41:32.217Z,8.50
2018-09-21T01:44:03.399Z,14.00
2018-09-21T01:46:34.665Z,11.37
2018-09-21T01:49:05.824Z,11.53
2018-09-21T01:51:37.243Z,9.60
2018-09-21T01:54:08.354Z,10.03
2018-09-21T01:56:39.356Z,9.77
2018-09-21T01:59:10.538Z,9.60
2018-09-21T02:01:41.934Z,9.43
2018-09-21T02:04:13.015Z,9.83
2018-09-21T02:06:44.328Z,9.50
2018-09-21T02:09:16.324Z,10.50
2018-09-21T02:11:47.730Z,10.00
2018-09-21T02:14:18.872Z,12.77
2018-09-21T02:16:50.295Z,11.50
2018-09-21T02:19:21.674Z,13.00
2018-09-21T02:21:53.067Z,14.53
2018-09-21T02:24:24.232Z,11.40
2018-09-21T02:26:55.721Z,14.10
2018-09-21T02:29:27.015Z,13.33
2018-09-21T02:31:58.488Z,15.13
2018-09-21T02:34:29.666Z,10.37
2018-09-21T02:37:01.012Z,10.83
2018-09-21T02:39:32.166Z,14.17
2018-09-21T02:42:03.383Z,13.80
2018-09-21T02:44:34.349Z,10.40
2018-09-21T02:47:05.392Z,14.73
2018-09-21T02:49:36.963Z,16.77
2018-09-21T02:52:08.809Z,14.03
2018-09-21T02:54:40.210Z,13.13
2018-09-21T02:57:11.292Z,15.07
2018-09-21T02:59:42.336Z,15.30
2018-09-21T03:02:14.296Z,14.67
2018-09-21T03:04:50.768Z,12.33
2018-09-21T03:07:22.324Z,13.30
2018-09-21T03:09:53.783Z,14.87
2018-09-21T03:12:24.934Z,14.10
2018-09-21T03:14:55.961Z,16.63
2018-09-21T03:17:27.411Z,16.97
2018-09-21T03:19:59.028Z,17.27
2018-09-21T03:22:30.584Z,14.90
2018-09-21T03:25:01.890Z,14.73
2018-09-21T03:27:32.875Z,14.60
2018-09-21T03:30:04.188Z,13.47
2018-09-21T03:32:35.300Z,14.97
2018-09-21T03:35:06.594Z,15.13
2018-09-21T03:37:37.858Z,15.50
2018-09-21T03:40:09.087Z,14.33
2018-09-21T03:42:40.246Z,14.40
2018-09-21T03:45:11.603Z,17.70
2018-09-21T03:47:42.796Z,16.30
2018-09-21T03:50:13.995Z,16.07
2018-09-21T03:52:45.251Z,15.93
2018-09-21T03:55:16.581Z,19.10
2018-09-21T03:57:47.967Z,18.23
2018-09-21T04:00:18.973Z,15.30
2018-09-21T04:02:49.972Z,14.20
2018-09-21T04:05:21.328Z,14.77
2018-09-21T04:07:52.543Z,16.43
2018-09-21T04:10:23.749Z,19.53
2018-09-21T04:12:54.745Z,17.20
2018-09-21T04:15:25.942Z,19.03
2018-09-21T04:17:56.917Z,17.67
2018-09-21T04:20:27.929Z,21.27
2018-09-21T04:23:02.575Z,20.37
2018-09-21T04:25:33.978Z,20.60
2018-09-21T04:28:05.248Z,19.53
2018-09-21T04:30:36.600Z,21.60
2018-09-21T04:33:07.835Z,17.13
2018-09-21T04:35:39.490Z,21.10
2018-09-21T04:38:10.786Z,17.83
2018-09-21T04:40:42.630Z,18.10
2018-09-21T04:43:13.953Z,17.23
2018-09-21T04:45:45.960Z,17.00
2018-09-21T04:48:17.307Z,20.13
2018-09-21T04:50:48.512Z,16.60
2018-09-21T04:53:19.485Z,19.80
2018-09-21T04:55:50.698Z,20.50
2018-09-21T04:58:22.183Z,20.33
2018-09-21T05:00:53.439Z,20.67
2018-09-21T05:03:24.480Z,22.70
2018-09-21T05:05:55.677Z,19.83
2018-09-21T05:08:27.031Z,18.37
2018-09-21T05:10:59.423Z,19.80
2018-09-21T05:13:30.583Z,22.57
2018-09-21T05:16:01.840Z,18.80
2018-09-21T05:18:33.194Z,23.13
2018-09-21T05:21:04.189Z,17.43
2018-09-21T05:23:35.571Z,19.30
2018-09-21T05:26:06.820Z,19.17
2018-09-21T05:28:37.933Z,21.93
2018-09-21T05:31:09.004Z,20.00
2018-09-21T05:33:40.310Z,20.37
2018-09-21T05:36:11.311Z,19.93
2018-09-21T05:38:42.501Z,22.00
2018-09-21T05:41:13.689Z,18.97
2018-09-21T05:43:44.892Z,21.07
2018-09-21T05:46:16.172Z,17.70
2018-09-21T05:48:47.475Z,20.47
2018-09-21T05:51:18.667Z,21.67
2018-09-21T05:53:49.887Z,22.03
2018-09-21T05:56:21.420Z,18.47
2018-09-21T05:58:52.622Z,18.03
2018-09-21T06:01:23.855Z,22.40
2018-09-21T06:03:55.691Z,19.63
2018-09-21T06:06:27.087Z,18.23
2018-09-21T06:08:58.381Z,26.53
2018-09-21T06:11:29.563Z,21.47
2018-09-21T06:14:00.783Z,20.07
2018-09-21T06:16:31.812Z,22.93
2018-09-21T06:19:02.995Z,26.13
2018-09-21T06:21:34.529Z,19.83
2018-09-21T06:24:05.900Z,16.77
2018-09-21T06:26:37.108Z,22.80
2018-09-21T06:29:08.340Z,20.77
2018-09-21T06:31:39.497Z,19.40
2018-09-21T06:34:10.684Z,21.80
2018-09-21T06:36:41.882Z,25.77
2018-09-21T06:39:13.118Z,24.67
2018-09-21T06:41:44.286Z,24.07
2018-09-21T06:44:15.255Z,20.73
2018-09-21T06:46:46.728Z,25.07
2018-09-21T06:49:17.851Z,24.47
2018-09-21T06:51:49.712Z,29.83
2018-09-21T06:54:21.059Z,22.30
2018-09-21T06:56:52.416Z,21.80
2018-09-21T06:59:24.079Z,20.13
2018-09-21T07:01:55.388Z,19.53
2018-09-21T07:04:26.766Z,21.53
2018-09-21T07:06:58.211Z,19.10
2018-09-21T07:09:29.563Z,26.47
2018-09-21T07:12:01.536Z,23.60
2018-09-21T07:14:32.526Z,18.53
2018-09-21T07:17:03.759Z,19.83
2018-09-21T07:19:35.111Z,18.83
2018-09-21T07:22:06.103Z,18.50
2018-09-21T07:24:37.599Z,18.23
2018-09-21T07:27:08.768Z,20.17
2018-09-21T07:29:39.907Z,20.27
2018-09-21T07:32:11.274Z,20.20
2018-09-21T07:34:42.284Z,18.83
2018-09-21T07:37:13.687Z,14.03
2018-09-21T07:39:44.611Z,15.57
2018-09-21T07:42:16.035Z,19.00
2018-09-21T07:44:47.225Z,16.37
2018-09-21T07:47:18.222Z,18.97
2018-09-21T07:49:49.187Z,18.20
2018-09-21T07:52:20.370Z,15.97
2018-09-21T07:54:51.591Z,15.30
2018-09-21T07:57:22.800Z,18.57
2018-09-21T07:59:53.983Z,20.03
2018-09-21T08:02:25.134Z,18.70
2018-09-21T08:04:56.352Z,17.10
2018-09-21T08:07:27.516Z,18.27
2018-09-21T08:09:58.764Z,15.63
2018-09-21T08:12:29.905Z,14.93
2018-09-21T08:15:01.379Z,15.07
2018-09-21T08:17:32.499Z,14.33
2018-09-21T08:20:03.704Z,15.20
2018-09-21T08:22:34.892Z,13.80
2018-09-21T08:25:06.019Z,13.73
2018-09-21T08:27:37.146Z,15.90
2018-09-21T08:30:08.530Z,13.30
2018-09-21T08:32:39.661Z,12.40
2018-09-21T08:35:11.029Z,16.53
2018-09-21T08:37:42.523Z,17.10
2018-09-21T08:40:13.823Z,12.50
2018-09-21T08:42:45.029Z,13.00
2018-09-21T08:45:16.492Z,12.87
2018-09-21T08:47:47.908Z,14.47
2018-09-21T08:50:19.471Z,12.73
2018-09-21T08:52:51.045Z,13.33
2018-09-21T08:55:22.324Z,12.07
2018-09-21T08:57:53.881Z,11.57
2018-09-21T09:00:25.127Z,13.63
2018-09-21T09:02:57.053Z,11.83
2018-09-21T09:05:28.445Z,13.30
2018-09-21T09:07:59.479Z,10.03
2018-09-21T09:10:31.430Z,12.93
2018-09-21T09:13:02.500Z,13.13
2018-09-21T09:15:33.835Z,11.27
2018-09-21T09:18:04.876Z,12.93
2018-09-21T09:20:36.228Z,13.20
2018-09-21T09:23:07.731Z,13.93
2018-09-21T09:25:38.823Z,10.83
2018-09-21T09:28:10.087Z,13.87
2018-09-21T09:30:41.419Z,10.20
2018-09-21T09:33:12.787Z,11.70
2018-09-21T09:35:44.287Z,11.30
2018-09-21T09:38:15.327Z,11.33
2018-09-21T09:40:46.361Z,10.20
2018-09-21T09:43:17.482Z,12.03
2018-09-21T09:45:48.752Z,13.63
2018-09-21T09:48:19.957Z,15.63
2018-09-21T09:50:51.295Z,10.60
2018-09-21T09:53:22.990Z,10.40
2018-09-21T09:55:54.091Z,13.40
2018-09-21T09:58:25.588Z,9.73
2018-09-21T10:00:57.783Z,13.80
2018-09-21T10:03:28.910Z,12.57
2018-09-21T10:06:00.063Z,16.43
2018-09-21T10:08:31.039Z,10.87
2018-09-21T10:11:02.036Z,10.40
2018-09-21T10:13:33.023Z,9.60
2018-09-21T10:16:04.287Z,14.10
2018-09-21T10:18:35.612Z,11.33
2018-09-21T10:21:06.787Z,12.33
2018-09-21T10:23:37.969Z,9.40
2018-09-21T10:26:09.166Z,8.87
2018-09-21T10:28:40.559Z,13.23
2018-09-21T10:31:11.819Z,9.30
2018-09-21T10:33:42.992Z,12.87
2018-09-21T10:36:14.194Z,8.67
2018-09-21T10:38:45.516Z,7.73
2018-09-21T10:41:16.524Z,8.23
2018-09-21T10:43:47.988Z,8.33
2018-09-21T10:46:19.327Z,10.03
2018-09-21T10:48:50.515Z,11.03
2018-09-21T10:51:21.496Z,9.77
2018-09-21T10:53:52.657Z,11.20
2018-09-21T10:56:23.867Z,7.50
2018-09-21T10:58:55.308Z,7.57
2018-09-21T11:01:26.620Z,8.77
2018-09-21T11:03:57.865Z,10.93
2018-09-21T11:06:29.547Z,11.27
2018-09-21T11:09:00.809Z,10.70
2018-09-21T11:11:31.995Z,7.57
2018-09-21T11:14:03.200Z,7.50
2018-09-21T11:16:34.300Z,9.57
2018-09-21T11:19:05.388Z,10.37
2018-09-21T11:21:36.551Z,6.47
2018-09-21T11:24:07.820Z,6.57
2018-09-21T11:26:39.128Z,8.00
2018-09-21T11:29:10.206Z,7.93
2018-09-21T11:31:42.017Z,8.27
2018-09-21T11:34:13.332Z,6.80
2018-09-21T11:36:44.474Z,7.73
2018-09-21T11:39:15.504Z,7.87
2018-09-21T11:41:46.743Z,9.30
2018-09-21T11:44:18.095Z,7.07
2018-09-21T11:46:49.499Z,6.60
2018-09-21T11:49:21.064Z,9.27
2018-09-21T11:51:52.243Z,7.13
2018-09-21T11:54:23.455Z,7.30
2018-09-21T11:56:54.635Z,9.23
2018-09-21T11:59:25.983Z,11.07
2018-09-21T12:01:57.251Z,6.80
2018-09-21T12:04:28.386Z,9.43
2018-09-21T12:06:59.586Z,9.00
2018-09-21T12:09:31.451Z,6.77
2018-09-21T12:12:02.779Z,8.63
2018-09-21T12:14:33.788Z,6.27
2018-09-21T12:17:04.992Z,6.37
2018-09-21T12:19:36.467Z,6.53
2018-09-21T12:22:07.886Z,9.33
2018-09-21T12:24:39.115Z,6.20
2018-09-21T12:27:10.104Z,5.47
2018-09-21T12:29:41.773Z,9.60
2018-09-21T12:32:13.072Z,6.93
2018-09-21T12:34:44.258Z,5.30
2018-09-21T12:37:15.761Z,5.80
2018-09-21T12:39:47.055Z,8.30
2018-09-21T12:42:18.047Z,6.00
2018-09-21T12:44:49.035Z,6.40
2018-09-21T12:47:20.230Z,4.97
2018-09-21T12:49:51.491Z,8.77
2018-09-21T12:57:10.139Z,9.00
2018-09-21T12:59:41.669Z,7.47
2018-09-21T13:02:13.129Z,6.00
2018-09-21T13:04:44.415Z,4.83
2018-09-21T13:07:15.880Z,6.97
2018-09-21T13:09:47.229Z,6.47
2018-09-21T13:12:18.843Z,7.50
2018-09-21T13:14:50.230Z,7.33
2018-09-21T13:17:21.536Z,16.47
2018-09-21T13:19:52.817Z,8.50
2018-09-21T13:22:24.419Z,5.13
2018-09-21T13:24:55.692Z,4.80
2018-09-21T13:27:27.389Z,4.63
2018-09-21T13:29:59.079Z,4.67
2018-09-21T13:32:30.071Z,6.53
2018-09-21T13:35:01.336Z,7.13
2018-09-21T13:37:32.485Z,5.23
2018-09-21T13:40:03.473Z,6.63
2018-09-21T13:42:34.671Z,6.77
2018-09-21T13:45:06.047Z,5.00
2018-09-21T13:47:37.012Z,4.87
2018-09-21T13:50:09.028Z,7.23
2018-09-21T13:52:40.195Z,6.27
2018-09-21T13:55:11.243Z,8.20
2018-09-21T13:57:43.272Z,17.07
2018-09-21T14:00:14.868Z,4.93
2018-09-21T14:02:46.127Z,5.00
2018-09-21T14:05:17.356Z,6.07
2018-09-21T14:07:48.751Z,5.67
2018-09-21T14:10:20.167Z,5.17
2018-09-21T14:12:51.779Z,7.20
2018-09-21T14:15:23.160Z,7.70
2018-09-21T14:17:54.496Z,6.33
2018-09-21T14:20:25.547Z,7.93
2018-09-21T14:22:56.691Z,7.67
2018-09-21T14:25:27.876Z,6.00
2018-09-21T14:27:59.249Z,6.87
2018-09-21T14:30:30.227Z,7.07
2018-09-21T14:33:02.246Z,7.80
2018-09-21T14:35:33.604Z,6.67
2018-09-21T14:38:04.586Z,7.40
2018-09-21T14:40:35.788Z,6.43
2018-09-21T14:43:07.546Z,6.00
2018-09-21T14:45:38.847Z,7.17
2018-09-21T14:48:10.842Z,7.30
2018-09-21T14:50:42.157Z,5.93
2018-09-21T14:53:13.799Z,6.40
2018-09-21T14:55:45.327Z,7.37
2018-09-21T14:58:16.506Z,6.87
2018-09-21T15:00:47.799Z,7.60
2018-09-21T15:03:19.061Z,7.27
2018-09-21T15:05:50.055Z,8.30
2018-09-21T15:08:21.254Z,5.67
2018-09-21T15:10:52.750Z,7.80
2018-09-21T15:13:24.047Z,5.70
2018-09-21T15:15:55.223Z,8.00
2018-09-21T15:18:26.215Z,7.80
2018-09-21T15:20:57.410Z,9.80
2018-09-21T15:23:28.871Z,7.50
2018-09-21T15:26:00.215Z,6.13
2018-09-21T15:28:31.559Z,8.77
2018-09-21T15:31:02.665Z,7.33
2018-09-21T15:33:33.951Z,7.67
2018-09-21T15:36:05.166Z,6.97
2018-09-21T15:38:36.134Z,6.63
2018-09-21T15:41:07.344Z,9.13
2018-09-21T15:43:38.340Z,9.53
2018-09-21T15:46:09.568Z,7.80
2018-09-21T15:48:40.928Z,6.60
2018-09-21T15:51:12.778Z,7.90
2018-09-21T15:53:44.093Z,5.97
2018-09-21T15:56:15.072Z,7.17
2018-09-21T15:58:46.513Z,7.20
2018-09-21T16:01:17.922Z,9.07
2018-09-21T16:03:49.232Z,5.73
2018-09-21T16:06:20.667Z,7.97
2018-09-21T16:08:52.014Z,8.30
2018-09-21T16:11:23.232Z,7.17
2018-09-21T16:13:54.406Z,7.27
2018-09-21T16:16:25.420Z,8.20
2018-09-21T16:18:56.560Z,8.83
2018-09-21T16:21:28.575Z,10.17
2018-09-21T16:24:00.070Z,11.97
2018-09-21T16:26:31.424Z,7.80
2018-09-21T16:29:02.707Z,9.70
2018-09-21T16:31:33.815Z,9.80
2018-09-21T16:34:05.095Z,7.30
2018-09-21T16:36:36.324Z,7.77
2018-09-21T16:39:10.981Z,6.80
2018-09-21T16:41:42.534Z,8.13
2018-09-21T16:44:13.972Z,6.43
2018-09-21T16:46:45.226Z,7.23
2018-09-21T16:49:17.258Z,10.37
2018-09-21T16:51:48.663Z,7.67
2018-09-21T16:54:19.841Z,12.23
2018-09-21T16:56:50.935Z,8.87
2018-09-21T16:59:22.183Z,8.73
2018-09-21T17:01:53.604Z,8.77
2018-09-21T17:04:24.808Z,14.40
2018-09-21T17:06:55.925Z,13.23
2018-09-21T17:09:27.116Z,12.17
2018-09-21T17:11:58.111Z,10.43
2018-09-21T17:14:29.287Z,12.07
2018-09-21T17:17:00.497Z,8.27
2018-09-21T17:19:31.647Z,8.80
2018-09-21T17:22:02.695Z,7.07
2018-09-21T17:24:33.839Z,7.90
2018-09-21T17:27:05.076Z,4.10
2018-09-21T17:29:36.068Z,6.37
2018-09-21T17:32:07.381Z,7.30
2018-09-21T17:34:38.608Z,4.00
2018-09-21T17:37:09.895Z,8.07
2018-09-21T17:39:41.193Z,6.10
2018-09-21T17:42:12.605Z,9.70
2018-09-21T17:44:44.266Z,4.90
2018-09-21T17:47:15.547Z,5.40
2018-09-21T17:49:46.786Z,4.20
2018-09-21T17:52:18.190Z,7.97
2018-09-21T17:54:49.592Z,5.20
2018-09-21T17:57:20.734Z,3.10
2018-09-21T17:59:51.907Z,4.17
2018-09-21T18:02:23.203Z,4.57
2018-09-21T18:04:54.537Z,4.63
2018-09-21T18:07:25.737Z,3.80
2018-09-21T18:09:57.069Z,2.60
2018-09-21T18:12:28.116Z,1.97
2018-09-21T18:14:59.460Z,3.43
2018-09-21T18:17:30.463Z,2.37
2018-09-21T18:20:01.721Z,4.97
2018-09-21T18:22:33.062Z,2.57
2018-09-21T18:25:04.054Z,3.50
2018-09-21T18:27:35.239Z,1.87
2018-09-21T18:30:06.484Z,1.40
2018-09-21T18:32:37.900Z,1.40
2018-09-21T18:35:09.292Z,1.53
2018-09-21T18:37:40.575Z,2.10
2018-09-21T18:40:11.720Z,2.43
2018-09-21T18:42:42.770Z,1.50
2018-09-21T18:45:13.977Z,2.17
2018-09-21T18:47:45.150Z,1.63
2018-09-21T18:50:16.446Z,0.80
2018-09-21T18:52:47.749Z,0.70
2018-09-21T18:55:18.756Z,0.60
2018-09-21T18:57:49.936Z,0.80
2018-09-21T19:00:21.660Z,0.60
2018-09-21T19:02:52.910Z,1.60
2018-09-21T19:05:24.111Z,1.10
2018-09-21T19:07:55.537Z,0.87
2018-09-21T19:10:26.857Z,0.80
2018-09-21T19:12:58.539Z,1.27
2018-09-21T19:15:29.655Z,1.37
2018-09-21T19:18:01.632Z,2.47
2018-09-21T19:20:32.795Z,1.50
2018-09-21T19:23:04.042Z,4.87
2018-09-21T19:25:35.591Z,0.47
2018-09-21T19:28:06.806Z,1.47
2018-09-21T19:30:38.052Z,1.07
2018-09-21T19:33:09.639Z,0.77
2018-09-21T19:35:41.452Z,1.67
2018-09-21T19:38:12.724Z,3.20
2018-09-21T19:40:44.640Z,1.10
2018-09-21T19:43:15.907Z,2.60
2018-09-21T19:45:47.565Z,2.63
2018-09-21T19:48:18.925Z,1.67
2018-09-21T19:50:50.273Z,1.27
2018-09-21T19:53:21.279Z,1.83
2018-09-21T19:55:52.935Z,2.40
2018-09-21T19:58:24.052Z,2.87
2018-09-21T20:00:55.464Z,1.17
2018-09-21T20:03:27.083Z,2.43
2018-09-21T20:05:58.410Z,4.13
2018-09-21T20:08:29.672Z,2.03
2018-09-21T20:11:00.807Z,1.93
2018-09-21T20:13:31.971Z,1.67
2018-09-21T20:16:03.191Z,1.40
2018-09-21T20:18:34.536Z,2.33
2018-09-21T20:21:05.746Z,1.50
2018-09-21T20:23:37.647Z,2.93
2018-09-21T20:26:09.059Z,5.23
2018-09-21T20:28:40.365Z,1.73
2018-09-21T20:31:16.484Z,2.23
2018-09-21T20:33:47.647Z,2.20
2018-09-21T20:36:19.099Z,2.47
2018-09-21T20:38:50.159Z,2.10
2018-09-21T20:41:21.390Z,1.73
2018-09-21T20:43:53.055Z,2.33
2018-09-21T20:46:24.376Z,3.13
2018-09-21T20:48:55.704Z,2.40
2018-09-21T20:51:26.987Z,3.53
2018-09-21T20:53:58.301Z,1.27
2018-09-21T20:56:29.479Z,2.37
2018-09-21T20:59:00.750Z,2.57
2018-09-21T21:01:31.932Z,2.50
2018-09-21T21:04:03.281Z,1.43
2018-09-21T21:06:34.261Z,2.50
2018-09-21T21:09:07.091Z,2.83
2018-09-21T21:11:38.339Z,2.07
2018-09-21T21:14:09.431Z,4.03
2018-09-21T21:16:40.782Z,1.33
2018-09-21T21:19:11.787Z,1.43
2018-09-21T21:21:42.969Z,3.77
2018-09-21T21:24:15.350Z,2.40
2018-09-21T21:26:47.948Z,1.37
2018-09-21T21:29:19.579Z,1.37
2018-09-21T21:31:51.191Z,2.30
2018-09-21T21:34:22.478Z,1.70
2018-09-21T21:36:53.997Z,2.13
2018-09-21T21:39:25.241Z,1.70
2018-09-21T21:41:56.491Z,2.60
2018-09-21T21:44:27.839Z,1.77
2018-09-21T21:46:59.233Z,2.90
2018-09-21T21:49:30.232Z,2.63
2018-09-21T21:52:04.652Z,2.37
2018-09-21T21:54:35.927Z,2.53
2018-09-21T21:57:07.587Z,3.90
2018-09-21T21:59:39.343Z,1.70
2018-09-21T22:02:11.924Z,2.23
2018-09-21T22:04:43.443Z,1.77
2018-09-21T22:07:14.642Z,2.43
2018-09-21T22:09:45.828Z,3.87
2018-09-21T22:12:21.822Z,1.20
2018-09-21T22:14:53.140Z,2.03
2018-09-21T22:17:24.368Z,3.23
2018-09-21T22:19:55.692Z,3.50
2018-09-21T22:22:26.923Z,4.07
2018-09-21T22:24:58.158Z,6.37
2018-09-21T22:27:29.511Z,3.80
2018-09-21T22:30:00.682Z,3.93
2018-09-21T22:32:31.795Z,1.90
2018-09-21T22:35:03.091Z,3.33
2018-09-21T22:37:33.706Z,2.80
2018-09-21T22:40:04.991Z,3.07
2018-09-21T22:42:36.128Z,2.60
2018-09-21T22:45:07.863Z,2.97
2018-09-21T22:47:39.068Z,5.77
2018-09-21T22:50:10.276Z,4.47
2018-09-21T22:52:41.663Z,4.63
2018-09-21T22:55:13.287Z,2.10
2018-09-21T22:57:44.414Z,7.40
2018-09-21T23:00:15.966Z,2.73
2018-09-21T23:02:47.168Z,4.67
2018-09-21T23:05:18.375Z,3.97
2018-09-21T23:07:49.520Z,3.97
2018-09-21T23:10:21.251Z,3.37
2018-09-21T23:12:52.508Z,5.47
2018-09-21T23:15:24.035Z,3.47
2018-09-21T23:17:55.115Z,2.47
2018-09-21T23:20:26.299Z,6.50
2018-09-21T23:22:57.528Z,6.00
2018-09-21T23:25:29.171Z,4.20
2018-09-21T23:28:00.243Z,5.13
2018-09-21T23:30:31.295Z,4.30
2018-09-21T23:33:02.647Z,2.20
2018-09-21T23:35:33.852Z,3.23
2018-09-21T23:38:05.455Z,5.13
2018-09-21T23:40:36.786Z,5.37
2018-09-21T23:43:07.826Z,4.67
2018-09-21T23:45:38.830Z,4.30
2018-09-21T23:48:10.175Z,2.87
2018-09-21T23:50:41.390Z,5.73
2018-09-21T23:53:12.738Z,3.20
2018-09-21T23:55:44.020Z,2.83
2018-09-21T23:58:15.408Z,3.30
